Station Historical Data
Daily Summary for January 22, 2012 Units:  English    Metric   Both
« Previous Day
Next Day »
Daily Weekly Monthly Yearly Custom
  High: Low: Average:
Temperature: 61.2 °F 36.7 °F 49.9 °F
Dew Point: 59.8 °F 35.9 °F 49 °F
Humidity: 97% 94% 97%
Wind Speed: 26.0mph 1.0mph 7.7mph
Wind Gust: 26.0mph - -
Wind- - SE
Pressure: 30.08 in 29.80 in -
Precipitation: 0.25 in    
Historical Graphs
 
 
Tabular Data for January 22, 2012
Time Temperature Dew Point Pressure Wind Wind Speed Wind Gust Humidity Rainfall Rate (Hourly) Conditions
00:00 36.7 °F 35.9 °F 30.07 in ENE 2.0 mph 9.0 mph 97% 0.00 in
00:01 36.8 °F 36.0 °F 30.07 in ENE 4.0 mph 9.0 mph 97% 0.00 in
00:06 36.7 °F 35.9 °F 30.07 in ENE 2.0 mph 6.0 mph 97% 0.00 in
00:11 36.8 °F 36.0 °F 30.07 in ENE 3.0 mph 4.0 mph 97% 0.00 in
00:16 36.8 °F 36.0 °F 30.07 in East 3.0 mph 6.0 mph 97% 0.00 in
00:21 36.9 °F 36.1 °F 30.08 in East 3.0 mph 4.0 mph 97% 0.00 in
00:26 36.9 °F 36.1 °F 30.07 in ENE 4.0 mph 5.0 mph 97% 0.00 in
00:31 36.9 °F 36.1 °F 30.07 in ESE 5.0 mph 6.0 mph 97% 0.00 in
00:36 36.9 °F 36.1 °F 30.07 in East 4.0 mph 6.0 mph 97% 0.00 in
00:41 36.9 °F 36.1 °F 30.07 in East 3.0 mph 7.0 mph 97% 0.00 in
00:46 37.0 °F 36.2 °F 30.07 in East 7.0 mph 7.0 mph 97% 0.00 in
00:51 37.0 °F 36.2 °F 30.07 in East 4.0 mph 6.0 mph 97% 0.00 in
00:56 37.0 °F 36.2 °F 30.07 in East 4.0 mph 6.0 mph 97% 0.00 in
01:01 37.0 °F 36.2 °F 30.07 in East 5.0 mph 5.0 mph 97% 0.00 in
01:06 36.9 °F 36.1 °F 30.07 in East 2.0 mph 4.0 mph 97% 0.00 in
01:12 37.0 °F 36.2 °F 30.07 in ESE 3.0 mph 4.0 mph 97% 0.00 in
01:17 37.2 °F 36.4 °F 30.07 in East 2.0 mph 5.0 mph 97% 0.00 in
01:22 37.1 °F 36.3 °F 30.06 in East 7.0 mph 7.0 mph 97% 0.00 in
01:27 37.1 °F 36.3 °F 30.06 in East 4.0 mph 8.0 mph 97% 0.00 in
01:32 37.1 °F 36.3 °F 30.06 in ENE 3.0 mph 6.0 mph 97% 0.00 in
01:37 37.1 °F 36.3 °F 30.06 in East 7.0 mph 7.0 mph 97% 0.00 in
01:42 37.2 °F 36.4 °F 30.06 in ENE 2.0 mph 4.0 mph 97% 0.00 in
01:47 37.2 °F 36.4 °F 30.06 in East 4.0 mph 6.0 mph 97% 0.00 in
01:52 37.2 °F 36.4 °F 30.06 in ESE 4.0 mph 7.0 mph 97% 0.00 in
01:57 37.2 °F 36.4 °F 30.06 in East 3.0 mph 6.0 mph 97% 0.00 in
02:02 37.3 °F 36.5 °F 30.06 in East 3.0 mph 7.0 mph 97% 0.00 in
02:07 37.3 °F 36.5 °F 30.06 in East 3.0 mph 6.0 mph 97% 0.00 in
02:12 37.4 °F 36.6 °F 30.06 in East 3.0 mph 4.0 mph 97% 0.00 in
02:17 37.5 °F 36.7 °F 30.06 in ESE 4.0 mph 5.0 mph 97% 0.00 in
02:22 37.6 °F 36.8 °F 30.06 in East 4.0 mph 6.0 mph 97% 0.00 in
02:27 37.5 °F 36.7 °F 30.06 in East 5.0 mph 6.0 mph 97% 0.00 in
02:32 37.6 °F 36.8 °F 30.06 in East 4.0 mph 7.0 mph 97% 0.00 in
02:37 37.7 °F 36.9 °F 30.06 in ESE 4.0 mph 6.0 mph 97% 0.00 in
02:42 37.7 °F 36.9 °F 30.06 in ESE 3.0 mph 8.0 mph 97% 0.00 in
02:47 37.8 °F 37.0 °F 30.07 in SE 5.0 mph 6.0 mph 97% 0.00 in
02:52 37.9 °F 37.1 °F 30.06 in ESE 3.0 mph 7.0 mph 97% 0.00 in
02:57 37.9 °F 37.1 °F 30.06 in ESE 5.0 mph 6.0 mph 97% 0.00 in
03:02 38.0 °F 37.2 °F 30.05 in ESE 3.0 mph 6.0 mph 97% 0.00 in
03:07 38.0 °F 37.2 °F 30.05 in SE 3.0 mph 7.0 mph 97% 0.00 in
03:12 38.1 °F 37.3 °F 30.05 in ESE 6.0 mph 7.0 mph 97% 0.00 in
03:17 38.1 °F 37.3 °F 30.05 in ESE 8.0 mph 11.0 mph 97% 0.00 in
03:22 38.3 °F 37.5 °F 30.05 in ESE 6.0 mph 8.0 mph 97% 0.00 in
03:27 38.3 °F 37.5 °F 30.04 in ESE 8.0 mph 9.0 mph 97% 0.00 in
03:32 38.3 °F 37.5 °F 30.05 in ESE 5.0 mph 10.0 mph 97% 0.00 in
03:37 38.4 °F 37.6 °F 30.04 in ESE 9.0 mph 10.0 mph 97% 0.00 in
03:42 38.5 °F 37.7 °F 30.04 in ESE 9.0 mph 10.0 mph 97% 0.00 in
03:47 38.5 °F 37.7 °F 30.04 in ESE 5.0 mph 10.0 mph 97% 0.00 in
03:52 38.6 °F 37.8 °F 30.04 in SE 8.0 mph 10.0 mph 97% 0.00 in
03:57 38.6 °F 37.8 °F 30.04 in ESE 6.0 mph 10.0 mph 97% 0.00 in
04:02 38.7 °F 37.9 °F 30.04 in ESE 9.0 mph 12.0 mph 97% 0.00 in
04:07 38.8 °F 38.0 °F 30.05 in ESE 5.0 mph 9.0 mph 97% 0.00 in
04:12 38.9 °F 38.1 °F 30.05 in SE 8.0 mph 9.0 mph 97% 0.00 in
04:17 38.9 °F 38.1 °F 30.05 in SE 4.0 mph 9.0 mph 97% 0.00 in
04:22 39.0 °F 38.2 °F 30.04 in ESE 7.0 mph 7.0 mph 97% 0.00 in
04:27 39.1 °F 38.3 °F 30.03 in ESE 3.0 mph 8.0 mph 97% 0.00 in
04:32 39.2 °F 38.4 °F 30.04 in SE 6.0 mph 8.0 mph 97% 0.00 in
04:37 39.3 °F 38.5 °F 30.04 in ESE 6.0 mph 9.0 mph 97% 0.00 in
04:42 39.5 °F 38.7 °F 30.04 in SE 6.0 mph 6.0 mph 97% 0.00 in
04:47 39.6 °F 38.8 °F 30.05 in SE 6.0 mph 6.0 mph 97% 0.00 in
04:52 39.7 °F 38.9 °F 30.04 in SE 6.0 mph 6.0 mph 97% 0.00 in
04:58 39.8 °F 39.0 °F 30.04 in ESE 3.0 mph 8.0 mph 97% 0.00 in
05:03 39.9 °F 39.1 °F 30.04 in ESE 4.0 mph 5.0 mph 97% 0.00 in
05:08 39.9 °F 39.1 °F 30.04 in ESE 5.0 mph 5.0 mph 97% 0.00 in
05:13 40.0 °F 39.2 °F 30.04 in ESE 3.0 mph 5.0 mph 97% 0.00 in
05:18 40.1 °F 39.3 °F 30.03 in SE 4.0 mph 6.0 mph 97% 0.00 in
05:23 40.1 °F 39.3 °F 30.04 in SE 4.0 mph 5.0 mph 97% 0.00 in
05:28 40.3 °F 39.5 °F 30.04 in SE 2.0 mph 5.0 mph 97% 0.00 in
05:33 40.3 °F 39.5 °F 30.04 in East 4.0 mph 4.0 mph 97% 0.00 in
05:38 40.4 °F 39.6 °F 30.04 in ESE 3.0 mph 4.0 mph 97% 0.00 in
05:43 40.4 °F 39.6 °F 30.03 in ESE 4.0 mph 5.0 mph 97% 0.00 in
05:48 40.5 °F 39.7 °F 30.03 in SE 3.0 mph 4.0 mph 97% 0.00 in
05:53 40.6 °F 39.8 °F 30.03 in SE 2.0 mph 4.0 mph 97% 0.00 in
05:58 40.7 °F 39.9 °F 30.03 in SSE 3.0 mph 5.0 mph 97% 0.00 in
06:03 40.7 °F 39.9 °F 30.04 in SE 2.0 mph 4.0 mph 97% 0.00 in
06:08 40.9 °F 40.1 °F 30.04 in South 1.0 mph 3.0 mph 97% 0.00 in
06:13 41.0 °F 40.2 °F 30.04 in SSW 1.0 mph 3.0 mph 97% 0.00 in
06:18 41.1 °F 40.3 °F 30.04 in SSE 3.0 mph 4.0 mph 97% 0.00 in
06:23 41.2 °F 40.4 °F 30.04 in SE 4.0 mph 4.0 mph 97% 0.00 in
06:28 41.3 °F 40.5 °F 30.04 in SE 1.0 mph 3.0 mph 97% 0.00 in
06:33 41.4 °F 40.6 °F 30.03 in ESE 5.0 mph 5.0 mph 97% 0.00 in
06:38 41.5 °F 40.7 °F 30.03 in ESE 3.0 mph 4.0 mph 97% 0.00 in
06:43 41.6 °F 40.8 °F 30.03 in East 3.0 mph 4.0 mph 97% 0.00 in
06:48 41.6 °F 40.8 °F 30.03 in ESE 3.0 mph 4.0 mph 97% 0.00 in
06:53 41.6 °F 40.8 °F 30.03 in SE 3.0 mph 5.0 mph 97% 0.00 in
06:58 41.6 °F 40.8 °F 30.03 in SSE 4.0 mph 5.0 mph 97% 0.00 in
07:03 41.7 °F 40.9 °F 30.03 in ESE 4.0 mph 5.0 mph 97% 0.00 in
07:08 41.7 °F 40.9 °F 30.03 in SE 3.0 mph 5.0 mph 97% 0.00 in
07:13 41.8 °F 41.0 °F 30.02 in ESE 6.0 mph 6.0 mph 97% 0.00 in
07:18 41.8 °F 41.0 °F 30.02 in ESE 3.0 mph 4.0 mph 97% 0.00 in
07:23 41.9 °F 41.1 °F 30.02 in East 4.0 mph 4.0 mph 97% 0.00 in
07:28 41.9 °F 41.1 °F 30.02 in ESE 4.0 mph 5.0 mph 97% 0.00 in
07:33 41.9 °F 41.1 °F 30.02 in East 2.0 mph 6.0 mph 97% 0.00 in
07:38 41.9 °F 41.1 °F 30.02 in East 3.0 mph 4.0 mph 97% 0.00 in
07:43 42.0 °F 41.2 °F 30.02 in ESE 3.0 mph 6.0 mph 97% 0.00 in
07:49 42.0 °F 41.2 °F 30.02 in ESE 4.0 mph 6.0 mph 97% 0.00 in
07:54 42.0 °F 41.2 °F 30.02 in ESE 5.0 mph 7.0 mph 97% 0.00 in
07:59 42.2 °F 41.4 °F 30.02 in SE 4.0 mph 4.0 mph 97% 0.00 in
08:04 42.3 °F 41.5 °F 30.03 in SE 2.0 mph 3.0 mph 97% 0.00 in
08:09 42.5 °F 41.7 °F 30.03 in SE 3.0 mph 5.0 mph 97% 0.00 in
08:14 42.6 °F 41.8 °F 30.03 in SE 4.0 mph 4.0 mph 97% 0.00 in
08:19 42.7 °F 41.9 °F 30.02 in ESE 4.0 mph 6.0 mph 97% 0.00 in
08:24 42.8 °F 42.0 °F 30.03 in ESE 2.0 mph 5.0 mph 97% 0.00 in
08:29 43.0 °F 42.2 °F 30.03 in ESE 4.0 mph 6.0 mph 97% 0.00 in
08:34 43.1 °F 42.3 °F 30.03 in ESE 7.0 mph 7.0 mph 97% 0.00 in
08:39 43.3 °F 42.5 °F 30.03 in ESE 4.0 mph 6.0 mph 97% 0.00 in
08:44 43.5 °F 42.7 °F 30.03 in East 4.0 mph 5.0 mph 97% 0.00 in
08:49 43.6 °F 42.8 °F 30.03 in ESE 3.0 mph 8.0 mph 97% 0.00 in
08:54 43.8 °F 43.0 °F 30.03 in East 3.0 mph 6.0 mph 97% 0.00 in
08:59 44.1 °F 43.3 °F 30.03 in SE 3.0 mph 7.0 mph 97% 0.00 in
09:04 44.3 °F 43.5 °F 30.04 in ESE 5.0 mph 8.0 mph 97% 0.00 in
09:09 44.5 °F 43.7 °F 30.04 in ESE 4.0 mph 7.0 mph 97% 0.00 in
09:14 44.7 °F 43.9 °F 30.03 in East 4.0 mph 7.0 mph 97% 0.00 in
09:19 44.9 °F 44.1 °F 30.03 in East 5.0 mph 8.0 mph 97% 0.00 in
09:24 45.2 °F 44.4 °F 30.03 in ESE 7.0 mph 11.0 mph 97% 0.00 in
09:29 45.4 °F 44.6 °F 30.03 in ESE 4.0 mph 9.0 mph 97% 0.00 in
09:34 45.6 °F 44.8 °F 30.03 in ESE 8.0 mph 10.0 mph 97% 0.00 in
09:39 46.0 °F 45.2 °F 30.03 in ESE 6.0 mph 8.0 mph 97% 0.00 in
09:44 46.2 °F 45.4 °F 30.03 in ESE 6.0 mph 9.0 mph 97% 0.00 in
09:49 46.4 °F 45.6 °F 30.03 in SE 6.0 mph 8.0 mph 97% 0.00 in
09:54 46.8 °F 46.0 °F 30.03 in SE 8.0 mph 9.0 mph 97% 0.00 in
09:59 47.1 °F 46.3 °F 30.04 in SE 6.0 mph 8.0 mph 97% 0.00 in
10:04 47.3 °F 46.5 °F 30.04 in SE 6.0 mph 8.0 mph 97% 0.00 in
10:09 47.5 °F 46.7 °F 30.04 in SE 6.0 mph 8.0 mph 97% 0.00 in
10:14 47.9 °F 47.1 °F 30.05 in SE 5.0 mph 6.0 mph 97% 0.00 in
10:19 48.3 °F 47.5 °F 30.05 in SSE 6.0 mph 6.0 mph 97% 0.00 in
10:24 48.5 °F 47.7 °F 30.05 in SE 4.0 mph 7.0 mph 97% 0.00 in
10:29 48.9 °F 48.1 °F 30.05 in SE 3.0 mph 6.0 mph 97% 0.00 in
10:34 49.2 °F 48.4 °F 30.06 in SSE 3.0 mph 6.0 mph 97% 0.00 in
10:39 49.4 °F 48.6 °F 30.06 in SSE 4.0 mph 8.0 mph 97% 0.00 in
10:44 49.7 °F 48.9 °F 30.06 in ESE 4.0 mph 7.0 mph 97% 0.00 in
10:49 50.0 °F 49.2 °F 30.06 in ESE 7.0 mph 7.0 mph 97% 0.00 in
10:54 50.2 °F 49.4 °F 30.06 in SSE 4.0 mph 9.0 mph 97% 0.00 in
10:59 50.4 °F 49.6 °F 30.06 in SE 7.0 mph 7.0 mph 97% 0.00 in
11:05 50.6 °F 49.8 °F 30.06 in SE 4.0 mph 7.0 mph 97% 0.00 in
11:10 50.8 °F 50.0 °F 30.06 in ESE 7.0 mph 9.0 mph 97% 0.00 in
11:15 50.9 °F 50.1 °F 30.05 in SE 4.0 mph 7.0 mph 97% 0.00 in
11:20 51.1 °F 50.3 °F 30.06 in SSE 6.0 mph 9.0 mph 97% 0.00 in
11:25 51.3 °F 50.5 °F 30.05 in SE 6.0 mph 6.0 mph 97% 0.00 in
11:30 51.5 °F 50.7 °F 30.05 in SSE 7.0 mph 8.0 mph 97% 0.00 in
11:35 51.8 °F 51.0 °F 30.05 in SE 6.0 mph 7.0 mph 97% 0.00 in
11:40 52.1 °F 51.3 °F 30.05 in SE 4.0 mph 9.0 mph 97% 0.00 in
11:45 52.4 °F 51.6 °F 30.04 in SE 4.0 mph 9.0 mph 97% 0.00 in
11:50 52.6 °F 51.8 °F 30.04 in SE 6.0 mph 9.0 mph 97% 0.00 in
11:55 52.7 °F 51.9 °F 30.03 in SE 7.0 mph 10.0 mph 97% 0.00 in
12:00 52.9 °F 52.1 °F 30.03 in SE 6.0 mph 9.0 mph 97% 0.00 in
12:05 53.1 °F 52.3 °F 30.03 in SE 5.0 mph 8.0 mph 97% 0.00 in
12:10 53.3 °F 52.5 °F 30.03 in SE 8.0 mph 11.0 mph 97% 0.00 in
12:15 53.5 °F 52.7 °F 30.03 in ESE 10.0 mph 10.0 mph 97% 0.00 in
12:20 53.6 °F 52.8 °F 30.02 in SE 5.0 mph 8.0 mph 97% 0.00 in
12:25 53.6 °F 52.8 °F 30.02 in SE 7.0 mph 11.0 mph 97% 0.00 in
12:30 53.7 °F 52.9 °F 30.02 in ESE 7.0 mph 11.0 mph 97% 0.00 in
12:35 53.8 °F 53.0 °F 30.01 in SE 6.0 mph 8.0 mph 97% 0.00 in
12:40 54.0 °F 53.2 °F 30.01 in South 4.0 mph 8.0 mph 97% 0.00 in
12:45 54.1 °F 53.3 °F 30.01 in SE 4.0 mph 9.0 mph 97% 0.00 in
12:46 54.2 °F 53.4 °F 30.01 in SE 5.0 mph 9.0 mph 97% 0.00 in
12:51 54.4 °F 53.6 °F 30.00 in SSE 5.0 mph 10.0 mph 97% 0.00 in
12:56 54.5 °F 53.7 °F 30.00 in ESE 8.0 mph 13.0 mph 97% 0.00 in
13:01 54.7 °F 53.9 °F 30.00 in SSE 7.0 mph 9.0 mph 97% 0.00 in
13:06 54.8 °F 54.0 °F 30.00 in SE 7.0 mph 13.0 mph 97% 0.00 in
13:11 55.0 °F 54.2 °F 29.99 in SE 9.0 mph 12.0 mph 97% 0.00 in
13:16 55.1 °F 54.3 °F 29.99 in ESE 9.0 mph 12.0 mph 97% 0.00 in
13:21 55.4 °F 54.6 °F 29.99 in SE 7.0 mph 10.0 mph 97% 0.00 in
13:26 55.5 °F 54.7 °F 29.99 in SE 9.0 mph 14.0 mph 97% 0.00 in
13:31 55.7 °F 54.9 °F 29.98 in SSE 7.0 mph 13.0 mph 97% 0.00 in
13:36 55.8 °F 55.0 °F 29.98 in ESE 6.0 mph 11.0 mph 97% 0.00 in
13:41 56.0 °F 55.2 °F 29.98 in SE 8.0 mph 13.0 mph 97% 0.00 in
13:46 56.0 °F 55.2 °F 29.98 in SSE 8.0 mph 11.0 mph 97% 0.00 in
13:51 56.2 °F 55.4 °F 29.97 in SE 8.0 mph 14.0 mph 97% 0.00 in
13:56 56.3 °F 55.5 °F 29.97 in SSE 7.0 mph 14.0 mph 97% 0.00 in
14:01 56.3 °F 55.5 °F 29.97 in SSE 7.0 mph 11.0 mph 97% 0.00 in
14:06 56.5 °F 55.7 °F 29.96 in SSE 11.0 mph 11.0 mph 97% 0.00 in
14:11 56.6 °F 55.8 °F 29.96 in SE 9.0 mph 15.0 mph 97% 0.00 in
14:16 56.7 °F 55.9 °F 29.96 in SSE 14.0 mph 16.0 mph 97% 0.00 in
14:22 56.8 °F 56.0 °F 29.96 in SE 11.0 mph 12.0 mph 97% 0.00 in
14:27 56.7 °F 55.9 °F 29.95 in SSE 7.0 mph 12.0 mph 97% 0.00 in
14:32 56.8 °F 56.0 °F 29.96 in SE 7.0 mph 14.0 mph 97% 0.00 in
14:37 56.8 °F 56.0 °F 29.96 in SE 11.0 mph 11.0 mph 97% 0.00 in
14:42 56.9 °F 56.1 °F 29.96 in ESE 10.0 mph 12.0 mph 97% 0.00 in
14:47 57.0 °F 56.2 °F 29.96 in SE 8.0 mph 10.0 mph 97% 0.00 in
14:52 57.0 °F 56.2 °F 29.96 in SE 9.0 mph 13.0 mph 97% 0.00 in
14:57 57.0 °F 56.2 °F 29.96 in SE 5.0 mph 10.0 mph 97% 0.00 in
15:02 57.1 °F 56.3 °F 29.96 in SE 8.0 mph 11.0 mph 97% 0.00 in
15:07 57.1 °F 56.3 °F 29.96 in SE 10.0 mph 13.0 mph 97% 0.00 in
15:13 57.1 °F 56.3 °F 29.95 in SE 13.0 mph 13.0 mph 97% 0.00 in
15:17 57.1 °F 56.3 °F 29.95 in SE 12.0 mph 12.0 mph 97% 0.00 in
15:22 57.1 °F 56.3 °F 29.95 in ESE 9.0 mph 12.0 mph 97% 0.00 in
15:28 57.2 °F 56.4 °F 29.95 in SE 9.0 mph 12.0 mph 97% 0.00 in
15:33 57.2 °F 56.4 °F 29.95 in SE 11.0 mph 12.0 mph 97% 0.00 in
15:38 57.3 °F 56.5 °F 29.95 in ESE 11.0 mph 12.0 mph 97% 0.00 in
15:43 57.4 °F 56.6 °F 29.94 in SE 12.0 mph 12.0 mph 97% 0.00 in
15:48 57.4 °F 56.6 °F 29.94 in ESE 11.0 mph 13.0 mph 97% 0.00 in
15:53 57.4 °F 56.6 °F 29.94 in SE 6.0 mph 12.0 mph 97% 0.00 in
15:58 57.5 °F 56.7 °F 29.94 in SE 11.0 mph 15.0 mph 97% 0.00 in
16:03 57.6 °F 56.8 °F 29.94 in SE 9.0 mph 15.0 mph 97% 0.00 in
16:08 57.6 °F 56.8 °F 29.94 in SE 8.0 mph 13.0 mph 97% 0.00 in
16:13 57.7 °F 56.9 °F 29.94 in SE 9.0 mph 13.0 mph 97% 0.00 in
16:18 57.7 °F 56.9 °F 29.93 in ESE 11.0 mph 16.0 mph 97% 0.00 in
16:23 57.7 °F 56.9 °F 29.93 in ESE 13.0 mph 13.0 mph 97% 0.00 in
16:28 57.7 °F 56.9 °F 29.93 in SE 12.0 mph 13.0 mph 97% 0.00 in
16:33 57.8 °F 57.0 °F 29.93 in ESE 9.0 mph 14.0 mph 97% 0.00 in
16:38 57.8 °F 57.0 °F 29.93 in ESE 11.0 mph 14.0 mph 97% 0.00 in
16:43 57.8 °F 57.0 °F 29.93 in SE 11.0 mph 13.0 mph 97% 0.00 in
16:48 57.8 °F 57.0 °F 29.93 in SE 10.0 mph 18.0 mph 97% 0.00 in
16:53 57.8 °F 57.0 °F 29.93 in ESE 9.0 mph 17.0 mph 97% 0.00 in
16:58 57.8 °F 57.0 °F 29.93 in SE 7.0 mph 14.0 mph 97% 0.00 in
17:03 57.8 °F 57.0 °F 29.93 in SE 17.0 mph 17.0 mph 97% 0.00 in
17:08 57.8 °F 57.0 °F 29.92 in ESE 9.0 mph 14.0 mph 97% 0.00 in
17:13 57.7 °F 56.9 °F 29.92 in East 18.0 mph 18.0 mph 97% 0.00 in
17:18 57.8 °F 57.0 °F 29.92 in SE 13.0 mph 14.0 mph 97% 0.00 in
17:23 57.8 °F 57.0 °F 29.92 in ESE 10.0 mph 16.0 mph 97% 0.00 in
17:28 57.9 °F 57.1 °F 29.91 in ESE 11.0 mph 17.0 mph 97% 0.00 in
17:33 58.0 °F 57.2 °F 29.92 in ESE 11.0 mph 14.0 mph 97% 0.00 in
17:38 58.0 °F 56.9 °F 29.91 in SE 11.0 mph 20.0 mph 96% 0.00 in
17:43 58.1 °F 57.0 °F 29.92 in SSE 12.0 mph 16.0 mph 96% 0.00 in
17:48 58.2 °F 57.1 °F 29.92 in ESE 15.0 mph 16.0 mph 96% 1.00 in
17:53 58.2 °F 57.1 °F 29.91 in ESE 10.0 mph 15.0 mph 96% 0.42 in
17:58 58.2 °F 57.1 °F 29.91 in ESE 11.0 mph 18.0 mph 96% 0.19 in
18:03 58.3 °F 57.2 °F 29.91 in SE 11.0 mph 13.0 mph 96% 0.34 in
18:08 58.3 °F 57.2 °F 29.92 in SE 8.0 mph 15.0 mph 96% 0.30 in
18:13 58.3 °F 57.2 °F 29.93 in SSW 7.0 mph 10.0 mph 96% 0.09 in
18:19 58.4 °F 57.3 °F 29.93 in SW 5.0 mph 9.0 mph 96% 0.05 in
18:24 58.4 °F 57.3 °F 29.93 in SE 4.0 mph 6.0 mph 96% 0.04 in
18:29 58.5 °F 57.4 °F 29.93 in SSE 12.0 mph 12.0 mph 96% 0.00 in
18:34 58.5 °F 57.4 °F 29.92 in SE 7.0 mph 16.0 mph 96% 0.00 in
18:39 58.5 °F 57.4 °F 29.92 in SE 10.0 mph 14.0 mph 96% 0.00 in
18:44 58.7 °F 57.6 °F 29.92 in ESE 12.0 mph 15.0 mph 96% 0.00 in
18:49 58.8 °F 57.7 °F 29.92 in SE 10.0 mph 17.0 mph 96% 0.00 in
18:54 58.8 °F 57.7 °F 29.92 in SE 16.0 mph 16.0 mph 96% 0.00 in
18:59 58.8 °F 57.7 °F 29.92 in SE 9.0 mph 16.0 mph 96% 0.00 in
19:04 58.8 °F 57.7 °F 29.92 in SE 10.0 mph 12.0 mph 96% 0.00 in
19:09 58.9 °F 57.8 °F 29.92 in SSE 12.0 mph 15.0 mph 96% 0.00 in
19:14 59.0 °F 57.9 °F 29.92 in SSE 9.0 mph 17.0 mph 96% 0.00 in
19:19 59.0 °F 57.9 °F 29.92 in SSE 10.0 mph 16.0 mph 96% 0.00 in
19:24 59.0 °F 57.9 °F 29.92 in SE 10.0 mph 14.0 mph 96% 0.00 in
19:29 59.0 °F 57.9 °F 29.92 in SE 10.0 mph 15.0 mph 96% 0.00 in
19:34 59.1 °F 58.0 °F 29.92 in SE 11.0 mph 16.0 mph 96% 0.00 in
19:39 59.1 °F 58.0 °F 29.92 in SE 12.0 mph 16.0 mph 96% 0.00 in
19:44 59.0 °F 57.9 °F 29.92 in SE 15.0 mph 20.0 mph 96% 0.00 in
19:49 59.1 °F 58.0 °F 29.92 in SE 10.0 mph 19.0 mph 96% 0.00 in
19:54 59.1 °F 58.0 °F 29.92 in SSE 8.0 mph 15.0 mph 96% 0.00 in
19:59 59.1 °F 58.0 °F 29.91 in SE 10.0 mph 14.0 mph 96% 0.00 in
20:04 59.1 °F 58.0 °F 29.92 in SSE 7.0 mph 15.0 mph 96% 0.00 in
20:09 59.2 °F 58.1 °F 29.92 in SE 12.0 mph 16.0 mph 96% 0.00 in
20:14 59.3 °F 58.2 °F 29.91 in ESE 20.0 mph 20.0 mph 96% 0.00 in
20:19 59.3 °F 58.2 °F 29.91 in SE 18.0 mph 20.0 mph 96% 0.00 in
20:24 59.3 °F 58.2 °F 29.90 in SE 11.0 mph 20.0 mph 96% 0.00 in
20:29 59.3 °F 58.2 °F 29.90 in SE 12.0 mph 18.0 mph 96% 0.00 in
20:34 59.3 °F 58.2 °F 29.90 in ESE 16.0 mph 17.0 mph 96% 0.00 in
20:39 59.4 °F 58.3 °F 29.90 in SE 10.0 mph 17.0 mph 96% 0.00 in
20:44 59.4 °F 58.3 °F 29.89 in SE 14.0 mph 18.0 mph 96% 0.00 in
20:49 59.4 °F 58.3 °F 29.88 in SE 12.0 mph 19.0 mph 96% 0.00 in
20:54 59.4 °F 58.3 °F 29.88 in SSE 13.0 mph 18.0 mph 96% 0.00 in
20:59 59.5 °F 58.4 °F 29.88 in SE 12.0 mph 21.0 mph 96% 0.00 in
21:04 59.5 °F 58.4 °F 29.88 in SE 11.0 mph 20.0 mph 96% 0.00 in
21:09 59.5 °F 58.4 °F 29.88 in SE 9.0 mph 15.0 mph 96% 0.00 in
21:14 59.5 °F 58.4 °F 29.88 in SE 12.0 mph 19.0 mph 96% 0.00 in
21:19 59.5 °F 58.4 °F 29.88 in SE 21.0 mph 22.0 mph 96% 0.00 in
21:24 59.6 °F 58.5 °F 29.88 in SE 15.0 mph 24.0 mph 96% 0.00 in
21:29 59.6 °F 58.5 °F 29.87 in SE 13.0 mph 18.0 mph 96% 0.00 in
21:34 59.7 °F 58.6 °F 29.87 in SE 17.0 mph 20.0 mph 96% 0.00 in
21:40 59.7 °F 58.6 °F 29.87 in SSE 9.0 mph 24.0 mph 96% 0.00 in
21:45 59.7 °F 58.6 °F 29.86 in ESE 15.0 mph 21.0 mph 96% 0.00 in
21:50 59.7 °F 58.6 °F 29.86 in SE 12.0 mph 21.0 mph 96% 0.00 in
21:55 59.7 °F 58.6 °F 29.87 in ESE 20.0 mph 20.0 mph 96% 0.00 in
22:00 59.8 °F 58.7 °F 29.88 in ESE 13.0 mph 23.0 mph 96% 0.00 in
22:05 59.8 °F 58.7 °F 29.88 in SE 14.0 mph 20.0 mph 96% 0.00 in
22:10 59.8 °F 58.7 °F 29.87 in SE 8.0 mph 17.0 mph 96% 0.00 in
22:15 59.9 °F 58.8 °F 29.87 in SE 10.0 mph 17.0 mph 96% 0.00 in
22:20 60.0 °F 58.9 °F 29.86 in ESE 12.0 mph 16.0 mph 96% 0.00 in
22:25 60.0 °F 58.9 °F 29.86 in SSE 8.0 mph 16.0 mph 96% 0.00 in
22:30 60.1 °F 59.0 °F 29.86 in ESE 18.0 mph 18.0 mph 96% 0.00 in
22:35 60.3 °F 58.9 °F 29.85 in SE 17.0 mph 19.0 mph 95% 0.00 in
22:37 60.3 °F 58.9 °F 29.85 in ESE 12.0 mph 19.0 mph 95% 0.00 in
22:42 60.3 °F 58.9 °F 29.84 in SE 14.0 mph 19.0 mph 95% 0.00 in
22:47 60.4 °F 59.0 °F 29.83 in ESE 16.0 mph 22.0 mph 95% 0.00 in
22:52 60.5 °F 59.1 °F 29.82 in ESE 17.0 mph 19.0 mph 95% 0.00 in
22:57 60.6 °F 59.2 °F 29.82 in SSE 15.0 mph 19.0 mph 95% 0.00 in
23:02 60.7 °F 59.3 °F 29.82 in SSE 16.0 mph 21.0 mph 95% 0.00 in
23:07 60.7 °F 59.3 °F 29.82 in SE 10.0 mph 23.0 mph 95% 0.00 in
23:12 60.7 °F 59.3 °F 29.82 in ESE 20.0 mph 21.0 mph 95% 0.00 in
23:17 60.8 °F 59.4 °F 29.82 in SE 26.0 mph 26.0 mph 95% 0.00 in
23:22 60.8 °F 59.4 °F 29.82 in ESE 18.0 mph 22.0 mph 95% 0.00 in
23:28 60.9 °F 59.5 °F 29.82 in SSE 16.0 mph 16.0 mph 95% 0.00 in
23:33 61.0 °F 59.6 °F 29.83 in SSE 13.0 mph 23.0 mph 95% 0.00 in
23:38 61.1 °F 59.7 °F 29.82 in ESE 12.0 mph 16.0 mph 95% 0.00 in
23:43 61.1 °F 59.4 °F 29.82 in SE 9.0 mph 21.0 mph 94% 0.00 in
23:48 61.1 °F 59.4 °F 29.81 in SE 11.0 mph 16.0 mph 94% 0.00 in
23:53 61.2 °F 59.8 °F 29.81 in SE 9.0 mph 22.0 mph 95% 0.00 in
23:58 61.2 °F 59.5 °F 29.80 in SE 21.0 mph 21.0 mph 94% 0.00 in
Compliments of Weather Underground